sensor_id;sensor_type;location;lat;lon;timestamp;P1;durP1;ratioP1;P2;durP2;ratioP2
47483;SDS011;54076;50.322;18.650;2023-06-14T00:02:20;8.60;;;4.20;;
47483;SDS011;54076;50.322;18.650;2023-06-14T00:07:34;9.30;;;4.10;;
47483;SDS011;54076;50.322;18.650;2023-06-14T00:12:37;9.80;;;4.20;;
47483;SDS011;54076;50.322;18.650;2023-06-14T00:17:39;7.40;;;3.90;;
47483;SDS011;54076;50.322;18.650;2023-06-14T00:22:41;8.80;;;3.90;;
47483;SDS011;54076;50.322;18.650;2023-06-14T00:27:42;8.10;;;3.80;;
47483;SDS011;54076;50.322;18.650;2023-06-14T00:32:44;10.70;;;4.20;;
47483;SDS011;54076;50.322;18.650;2023-06-14T00:37:45;8.50;;;4.30;;
47483;SDS011;54076;50.322;18.650;2023-06-14T00:42:46;9.50;;;4.10;;
47483;SDS011;54076;50.322;18.650;2023-06-14T00:47:48;8.30;;;4.10;;
47483;SDS011;54076;50.322;18.650;2023-06-14T00:52:53;8.50;;;4.70;;
47483;SDS011;54076;50.322;18.650;2023-06-14T00:57:55;8.70;;;4.40;;
47483;SDS011;54076;50.322;18.650;2023-06-14T01:02:56;11.80;;;4.80;;
47483;SDS011;54076;50.322;18.650;2023-06-14T01:13:21;10.60;;;5.10;;
47483;SDS011;54076;50.322;18.650;2023-06-14T01:18:28;11.30;;;5.00;;
47483;SDS011;54076;50.322;18.650;2023-06-14T01:23:30;10.90;;;4.80;;
47483;SDS011;54076;50.322;18.650;2023-06-14T01:28:33;10.00;;;4.60;;
47483;SDS011;54076;50.322;18.650;2023-06-14T01:33:36;10.10;;;5.00;;
47483;SDS011;54076;50.322;18.650;2023-06-14T01:38:37;14.20;;;5.60;;
47483;SDS011;54076;50.322;18.650;2023-06-14T01:43:40;11.80;;;5.40;;
47483;SDS011;54076;50.322;18.650;2023-06-14T01:48:42;11.70;;;5.80;;
47483;SDS011;54076;50.322;18.650;2023-06-14T01:53:44;12.60;;;5.60;;
47483;SDS011;54076;50.322;18.650;2023-06-14T01:58:45;7.70;;;4.00;;
47483;SDS011;54076;50.322;18.650;2023-06-14T02:03:47;8.70;;;4.40;;
47483;SDS011;54076;50.322;18.650;2023-06-14T02:08:49;9.30;;;4.20;;
47483;SDS011;54076;50.322;18.650;2023-06-14T02:13:50;8.20;;;3.90;;
47483;SDS011;54076;50.322;18.650;2023-06-14T02:18:51;8.80;;;4.30;;
47483;SDS011;54076;50.322;18.650;2023-06-14T02:23:53;10.20;;;5.00;;
47483;SDS011;54076;50.322;18.650;2023-06-14T02:28:54;9.00;;;4.50;;
47483;SDS011;54076;50.322;18.650;2023-06-14T02:33:55;11.00;;;4.50;;
47483;SDS011;54076;50.322;18.650;2023-06-14T02:38:56;9.00;;;4.20;;
47483;SDS011;54076;50.322;18.650;2023-06-14T02:44:00;8.60;;;4.30;;
47483;SDS011;54076;50.322;18.650;2023-06-14T02:49:01;9.90;;;4.40;;
47483;SDS011;54076;50.322;18.650;2023-06-14T02:54:02;7.20;;;3.90;;
47483;SDS011;54076;50.322;18.650;2023-06-14T02:59:04;9.70;;;4.20;;
47483;SDS011;54076;50.322;18.650;2023-06-14T03:04:05;8.20;;;4.10;;
47483;SDS011;54076;50.322;18.650;2023-06-14T03:09:06;8.80;;;3.90;;
47483;SDS011;54076;50.322;18.650;2023-06-14T03:14:07;8.70;;;3.80;;
47483;SDS011;54076;50.322;18.650;2023-06-14T03:19:08;10.60;;;4.40;;
47483;SDS011;54076;50.322;18.650;2023-06-14T03:24:10;10.10;;;5.00;;
47483;SDS011;54076;50.322;18.650;2023-06-14T03:29:11;13.10;;;5.20;;
47483;SDS011;54076;50.322;18.650;2023-06-14T03:34:12;12.90;;;5.80;;
47483;SDS011;54076;50.322;18.650;2023-06-14T03:39:13;16.50;;;6.00;;
47483;SDS011;54076;50.322;18.650;2023-06-14T03:44:16;12.30;;;5.00;;
47483;SDS011;54076;50.322;18.650;2023-06-14T03:49:18;15.10;;;5.50;;
47483;SDS011;54076;50.322;18.650;2023-06-14T03:54:19;13.50;;;5.40;;
47483;SDS011;54076;50.322;18.650;2023-06-14T03:59:23;13.90;;;5.80;;
47483;SDS011;54076;50.322;18.650;2023-06-14T04:04:24;15.50;;;6.60;;
47483;SDS011;54076;50.322;18.650;2023-06-14T04:09:29;13.70;;;6.30;;
47483;SDS011;54076;50.322;18.650;2023-06-14T04:14:30;19.30;;;7.10;;
47483;SDS011;54076;50.322;18.650;2023-06-14T04:19:33;15.70;;;6.50;;
47483;SDS011;54076;50.322;18.650;2023-06-14T04:24:34;23.40;;;8.40;;
47483;SDS011;54076;50.322;18.650;2023-06-14T04:29:35;18.50;;;6.50;;
47483;SDS011;54076;50.322;18.650;2023-06-14T04:34:37;18.20;;;6.50;;
47483;SDS011;54076;50.322;18.650;2023-06-14T04:39:38;18.40;;;6.90;;
47483;SDS011;54076;50.322;18.650;2023-06-14T04:44:39;18.40;;;6.40;;
47483;SDS011;54076;50.322;18.650;2023-06-14T04:49:44;19.50;;;7.50;;
47483;SDS011;54076;50.322;18.650;2023-06-14T04:54:45;17.20;;;6.80;;
47483;SDS011;54076;50.322;18.650;2023-06-14T04:59:46;14.40;;;5.80;;
47483;SDS011;54076;50.322;18.650;2023-06-14T05:04:47;17.60;;;6.30;;
47483;SDS011;54076;50.322;18.650;2023-06-14T05:09:49;16.70;;;6.80;;
47483;SDS011;54076;50.322;18.650;2023-06-14T05:14:50;16.30;;;7.50;;
47483;SDS011;54076;50.322;18.650;2023-06-14T05:19:51;19.60;;;7.30;;
47483;SDS011;54076;50.322;18.650;2023-06-14T05:24:52;18.60;;;8.00;;
47483;SDS011;54076;50.322;18.650;2023-06-14T05:29:53;16.20;;;6.50;;
47483;SDS011;54076;50.322;18.650;2023-06-14T05:34:59;16.00;;;7.10;;
47483;SDS011;54076;50.322;18.650;2023-06-14T05:40:00;14.60;;;6.20;;
47483;SDS011;54076;50.322;18.650;2023-06-14T05:45:01;16.10;;;6.00;;
47483;SDS011;54076;50.322;18.650;2023-06-14T05:50:02;13.10;;;5.90;;
47483;SDS011;54076;50.322;18.650;2023-06-14T05:55:04;15.30;;;6.30;;
47483;SDS011;54076;50.322;18.650;2023-06-14T06:00:07;12.90;;;6.40;;
47483;SDS011;54076;50.322;18.650;2023-06-14T06:05:13;13.00;;;6.70;;
47483;SDS011;54076;50.322;18.650;2023-06-14T06:10:14;14.40;;;6.80;;
47483;SDS011;54076;50.322;18.650;2023-06-14T06:15:15;14.00;;;6.70;;
47483;SDS011;54076;50.322;18.650;2023-06-14T06:20:17;13.40;;;6.40;;
47483;SDS011;54076;50.322;18.650;2023-06-14T06:25:18;13.70;;;6.80;;
47483;SDS011;54076;50.322;18.650;2023-06-14T06:30:19;14.80;;;6.70;;
47483;SDS011;54076;50.322;18.650;2023-06-14T06:35:21;13.80;;;6.80;;
47483;SDS011;54076;50.322;18.650;2023-06-14T06:40:22;13.90;;;6.90;;
47483;SDS011;54076;50.322;18.650;2023-06-14T06:45:23;14.60;;;7.00;;
47483;SDS011;54076;50.322;18.650;2023-06-14T06:50:25;14.70;;;7.60;;
47483;SDS011;54076;50.322;18.650;2023-06-14T06:55:26;15.10;;;7.20;;
47483;SDS011;54076;50.322;18.650;2023-06-14T07:00:27;16.70;;;6.50;;
47483;SDS011;54076;50.322;18.650;2023-06-14T07:05:28;11.70;;;5.80;;
47483;SDS011;54076;50.322;18.650;2023-06-14T07:10:30;12.80;;;6.40;;
47483;SDS011;54076;50.322;18.650;2023-06-14T07:15:31;13.90;;;7.00;;
47483;SDS011;54076;50.322;18.650;2023-06-14T07:20:32;15.20;;;6.40;;
47483;SDS011;54076;50.322;18.650;2023-06-14T07:25:33;13.10;;;6.40;;
47483;SDS011;54076;50.322;18.650;2023-06-14T07:30:35;11.10;;;5.10;;
47483;SDS011;54076;50.322;18.650;2023-06-14T07:35:36;9.40;;;4.80;;
47483;SDS011;54076;50.322;18.650;2023-06-14T07:40:37;9.30;;;4.90;;
47483;SDS011;54076;50.322;18.650;2023-06-14T07:45:38;10.00;;;5.70;;
47483;SDS011;54076;50.322;18.650;2023-06-14T07:50:39;23.70;;;7.00;;
47483;SDS011;54076;50.322;18.650;2023-06-14T07:55:40;10.80;;;5.10;;
47483;SDS011;54076;50.322;18.650;2023-06-14T08:00:43;8.40;;;4.40;;
47483;SDS011;54076;50.322;18.650;2023-06-14T08:05:45;10.90;;;4.50;;
47483;SDS011;54076;50.322;18.650;2023-06-14T08:10:46;9.60;;;4.50;;
47483;SDS011;54076;50.322;18.650;2023-06-14T08:15:47;11.00;;;4.50;;
47483;SDS011;54076;50.322;18.650;2023-06-14T08:20:48;10.90;;;4.70;;
47483;SDS011;54076;50.322;18.650;2023-06-14T08:25:49;10.00;;;4.60;;
47483;SDS011;54076;50.322;18.650;2023-06-14T08:30:50;9.40;;;4.60;;
47483;SDS011;54076;50.322;18.650;2023-06-14T08:35:51;7.90;;;4.00;;
47483;SDS011;54076;50.322;18.650;2023-06-14T08:40:52;7.70;;;4.20;;
47483;SDS011;54076;50.322;18.650;2023-06-14T08:45:59;7.00;;;3.80;;
47483;SDS011;54076;50.322;18.650;2023-06-14T08:51:03;7.40;;;3.80;;
47483;SDS011;54076;50.322;18.650;2023-06-14T08:56:05;28.00;;;5.20;;
47483;SDS011;54076;50.322;18.650;2023-06-14T09:01:08;9.70;;;4.60;;
47483;SDS011;54076;50.322;18.650;2023-06-14T09:06:12;9.40;;;3.70;;
47483;SDS011;54076;50.322;18.650;2023-06-14T09:11:17;8.20;;;3.90;;
47483;SDS011;54076;50.322;18.650;2023-06-14T09:16:19;7.30;;;3.10;;
47483;SDS011;54076;50.322;18.650;2023-06-14T09:21:21;5.30;;;2.70;;
47483;SDS011;54076;50.322;18.650;2023-06-14T09:26:22;7.00;;;3.30;;
47483;SDS011;54076;50.322;18.650;2023-06-14T09:31:28;6.30;;;3.10;;
47483;SDS011;54076;50.322;18.650;2023-06-14T09:36:32;5.50;;;2.90;;
47483;SDS011;54076;50.322;18.650;2023-06-14T09:41:34;5.40;;;3.00;;
47483;SDS011;54076;50.322;18.650;2023-06-14T09:46:36;5.60;;;3.00;;
47483;SDS011;54076;50.322;18.650;2023-06-14T09:51:45;6.20;;;3.20;;
47483;SDS011;54076;50.322;18.650;2023-06-14T09:56:51;5.30;;;3.00;;
47483;SDS011;54076;50.322;18.650;2023-06-14T10:01:52;7.90;;;3.50;;
47483;SDS011;54076;50.322;18.650;2023-06-14T10:06:58;6.90;;;3.40;;
47483;SDS011;54076;50.322;18.650;2023-06-14T10:12:01;5.80;;;3.50;;
47483;SDS011;54076;50.322;18.650;2023-06-14T10:17:06;6.80;;;3.40;;
47483;SDS011;54076;50.322;18.650;2023-06-14T10:22:14;7.60;;;4.30;;
47483;SDS011;54076;50.322;18.650;2023-06-14T10:27:20;6.90;;;3.40;;
47483;SDS011;54076;50.322;18.650;2023-06-14T10:32:25;5.90;;;3.40;;
47483;SDS011;54076;50.322;18.650;2023-06-14T10:37:28;7.40;;;3.70;;
47483;SDS011;54076;50.322;18.650;2023-06-14T10:42:33;7.10;;;4.00;;
47483;SDS011;54076;50.322;18.650;2023-06-14T10:47:34;6.80;;;3.70;;
47483;SDS011;54076;50.322;18.650;2023-06-14T10:52:40;8.50;;;4.00;;
47483;SDS011;54076;50.322;18.650;2023-06-14T11:13:49;7.40;;;4.50;;
47483;SDS011;54076;50.322;18.650;2023-06-14T11:18:52;9.20;;;4.30;;
47483;SDS011;54076;50.322;18.650;2023-06-14T11:23:53;7.30;;;4.50;;
47483;SDS011;54076;50.322;18.650;2023-06-14T11:28:59;9.90;;;4.10;;
47483;SDS011;54076;50.322;18.650;2023-06-14T11:34:01;10.80;;;4.70;;
47483;SDS011;54076;50.322;18.650;2023-06-14T11:39:04;11.90;;;5.40;;
47483;SDS011;54076;50.322;18.650;2023-06-14T11:44:07;7.60;;;4.80;;
47483;SDS011;54076;50.322;18.650;2023-06-14T11:49:09;7.20;;;4.40;;
47483;SDS011;54076;50.322;18.650;2023-06-14T11:54:10;10.90;;;6.40;;
47483;SDS011;54076;50.322;18.650;2023-06-14T11:59:13;7.30;;;4.50;;
47483;SDS011;54076;50.322;18.650;2023-06-14T12:04:14;8.20;;;4.20;;
47483;SDS011;54076;50.322;18.650;2023-06-14T12:09:15;8.80;;;4.80;;
47483;SDS011;54076;50.322;18.650;2023-06-14T12:14:18;9.90;;;5.70;;
47483;SDS011;54076;50.322;18.650;2023-06-14T12:19:19;10.60;;;5.50;;
47483;SDS011;54076;50.322;18.650;2023-06-14T12:24:30;9.50;;;5.30;;
47483;SDS011;54076;50.322;18.650;2023-06-14T12:29:32;9.20;;;5.10;;
47483;SDS011;54076;50.322;18.650;2023-06-14T12:34:34;5.90;;;3.60;;
47483;SDS011;54076;50.322;18.650;2023-06-14T12:39:35;6.00;;;3.20;;
47483;SDS011;54076;50.322;18.650;2023-06-14T12:44:39;8.70;;;3.40;;
47483;SDS011;54076;50.322;18.650;2023-06-14T12:49:41;6.60;;;3.50;;
47483;SDS011;54076;50.322;18.650;2023-06-14T12:54:42;12.10;;;3.40;;
47483;SDS011;54076;50.322;18.650;2023-06-14T12:59:43;7.70;;;3.70;;
47483;SDS011;54076;50.322;18.650;2023-06-14T13:04:44;6.90;;;3.60;;
47483;SDS011;54076;50.322;18.650;2023-06-14T13:09:45;6.80;;;3.50;;
47483;SDS011;54076;50.322;18.650;2023-06-14T13:14:46;6.20;;;3.60;;
47483;SDS011;54076;50.322;18.650;2023-06-14T13:19:47;6.00;;;3.40;;
47483;SDS011;54076;50.322;18.650;2023-06-14T13:24:48;6.80;;;4.10;;
47483;SDS011;54076;50.322;18.650;2023-06-14T13:29:49;9.50;;;3.80;;
47483;SDS011;54076;50.322;18.650;2023-06-14T13:34:50;7.70;;;4.20;;
47483;SDS011;54076;50.322;18.650;2023-06-14T13:39:51;6.90;;;3.80;;
47483;SDS011;54076;50.322;18.650;2023-06-14T13:44:52;7.50;;;3.90;;
47483;SDS011;54076;50.322;18.650;2023-06-14T13:49:53;8.70;;;4.30;;
47483;SDS011;54076;50.322;18.650;2023-06-14T13:54:54;6.40;;;4.00;;
47483;SDS011;54076;50.322;18.650;2023-06-14T13:59:56;6.80;;;4.20;;
47483;SDS011;54076;50.322;18.650;2023-06-14T14:05:01;8.60;;;3.70;;
47483;SDS011;54076;50.322;18.650;2023-06-14T14:10:03;6.30;;;3.90;;
47483;SDS011;54076;50.322;18.650;2023-06-14T14:15:05;9.10;;;4.70;;
47483;SDS011;54076;50.322;18.650;2023-06-14T14:20:13;6.80;;;4.00;;
47483;SDS011;54076;50.322;18.650;2023-06-14T14:25:16;7.00;;;4.00;;
47483;SDS011;54076;50.322;18.650;2023-06-14T14:30:17;7.60;;;3.80;;
47483;SDS011;54076;50.322;18.650;2023-06-14T14:35:20;6.10;;;3.20;;
47483;SDS011;54076;50.322;18.650;2023-06-14T14:40:24;7.50;;;3.50;;
47483;SDS011;54076;50.322;18.650;2023-06-14T14:45:25;6.30;;;3.70;;
47483;SDS011;54076;50.322;18.650;2023-06-14T14:50:26;5.80;;;3.20;;
47483;SDS011;54076;50.322;18.650;2023-06-14T14:55:27;6.40;;;2.90;;
47483;SDS011;54076;50.322;18.650;2023-06-14T15:00:28;6.30;;;2.80;;
47483;SDS011;54076;50.322;18.650;2023-06-14T15:05:30;5.30;;;2.90;;
47483;SDS011;54076;50.322;18.650;2023-06-14T15:10:31;6.00;;;2.90;;
47483;SDS011;54076;50.322;18.650;2023-06-14T15:15:32;5.30;;;2.60;;
47483;SDS011;54076;50.322;18.650;2023-06-14T15:20:33;5.60;;;3.00;;
47483;SDS011;54076;50.322;18.650;2023-06-14T15:25:34;6.80;;;2.90;;
47483;SDS011;54076;50.322;18.650;2023-06-14T15:30:35;5.40;;;2.70;;
47483;SDS011;54076;50.322;18.650;2023-06-14T15:35:36;5.50;;;2.40;;
47483;SDS011;54076;50.322;18.650;2023-06-14T15:40:38;7.10;;;2.70;;
47483;SDS011;54076;50.322;18.650;2023-06-14T15:45:38;5.00;;;2.30;;
47483;SDS011;54076;50.322;18.650;2023-06-14T15:50:40;5.50;;;2.60;;
47483;SDS011;54076;50.322;18.650;2023-06-14T15:55:41;6.90;;;2.50;;
47483;SDS011;54076;50.322;18.650;2023-06-14T16:00:42;5.40;;;2.40;;
47483;SDS011;54076;50.322;18.650;2023-06-14T16:05:43;5.50;;;2.50;;
47483;SDS011;54076;50.322;18.650;2023-06-14T16:10:44;6.30;;;2.60;;
47483;SDS011;54076;50.322;18.650;2023-06-14T16:15:45;4.70;;;2.20;;
47483;SDS011;54076;50.322;18.650;2023-06-14T16:20:46;5.00;;;2.20;;
47483;SDS011;54076;50.322;18.650;2023-06-14T16:25:48;5.40;;;2.10;;
47483;SDS011;54076;50.322;18.650;2023-06-14T16:30:49;4.10;;;2.00;;
47483;SDS011;54076;50.322;18.650;2023-06-14T16:35:51;4.80;;;2.20;;
47483;SDS011;54076;50.322;18.650;2023-06-14T16:40:52;4.80;;;2.10;;
47483;SDS011;54076;50.322;18.650;2023-06-14T16:45:53;5.30;;;2.20;;
47483;SDS011;54076;50.322;18.650;2023-06-14T16:50:54;5.10;;;2.50;;
47483;SDS011;54076;50.322;18.650;2023-06-14T16:55:55;6.70;;;2.50;;
47483;SDS011;54076;50.322;18.650;2023-06-14T17:00:56;7.10;;;3.20;;
47483;SDS011;54076;50.322;18.650;2023-06-14T17:05:57;6.60;;;3.20;;
47483;SDS011;54076;50.322;18.650;2023-06-14T17:10:59;5.90;;;2.80;;
47483;SDS011;54076;50.322;18.650;2023-06-14T17:16:03;6.70;;;3.00;;
47483;SDS011;54076;50.322;18.650;2023-06-14T17:21:06;6.00;;;3.30;;
47483;SDS011;54076;50.322;18.650;2023-06-14T17:26:07;7.70;;;4.00;;
47483;SDS011;54076;50.322;18.650;2023-06-14T17:31:08;6.80;;;3.40;;
47483;SDS011;54076;50.322;18.650;2023-06-14T17:36:09;6.30;;;3.50;;
47483;SDS011;54076;50.322;18.650;2023-06-14T17:41:10;7.80;;;3.60;;
47483;SDS011;54076;50.322;18.650;2023-06-14T17:46:12;5.70;;;3.20;;
47483;SDS011;54076;50.322;18.650;2023-06-14T17:51:13;6.30;;;3.30;;
47483;SDS011;54076;50.322;18.650;2023-06-14T17:56:15;6.80;;;3.40;;
47483;SDS011;54076;50.322;18.650;2023-06-14T18:01:16;7.00;;;3.30;;
47483;SDS011;54076;50.322;18.650;2023-06-14T18:06:20;13.60;;;7.70;;
47483;SDS011;54076;50.322;18.650;2023-06-14T18:11:21;5.80;;;3.10;;
47483;SDS011;54076;50.322;18.650;2023-06-14T18:16:22;5.70;;;3.20;;
47483;SDS011;54076;50.322;18.650;2023-06-14T18:21:23;7.10;;;3.00;;
47483;SDS011;54076;50.322;18.650;2023-06-14T18:26:25;7.20;;;3.90;;
47483;SDS011;54076;50.322;18.650;2023-06-14T18:31:29;6.20;;;3.10;;
47483;SDS011;54076;50.322;18.650;2023-06-14T18:36:30;8.20;;;3.20;;
47483;SDS011;54076;50.322;18.650;2023-06-14T18:41:32;7.50;;;3.40;;
47483;SDS011;54076;50.322;18.650;2023-06-14T18:46:33;8.00;;;4.10;;
47483;SDS011;54076;50.322;18.650;2023-06-14T18:51:34;7.30;;;3.60;;
47483;SDS011;54076;50.322;18.650;2023-06-14T18:56:39;9.40;;;4.30;;
47483;SDS011;54076;50.322;18.650;2023-06-14T19:01:40;7.90;;;4.20;;
47483;SDS011;54076;50.322;18.650;2023-06-14T19:06:41;7.20;;;4.20;;
47483;SDS011;54076;50.322;18.650;2023-06-14T19:11:42;6.30;;;4.10;;
47483;SDS011;54076;50.322;18.650;2023-06-14T19:16:45;9.30;;;4.10;;
47483;SDS011;54076;50.322;18.650;2023-06-14T19:21:47;7.70;;;3.80;;
47483;SDS011;54076;50.322;18.650;2023-06-14T19:26:48;6.90;;;3.40;;
47483;SDS011;54076;50.322;18.650;2023-06-14T19:31:50;6.30;;;3.60;;
47483;SDS011;54076;50.322;18.650;2023-06-14T19:36:53;8.30;;;3.80;;
47483;SDS011;54076;50.322;18.650;2023-06-14T19:41:54;6.40;;;3.60;;
47483;SDS011;54076;50.322;18.650;2023-06-14T19:46:55;7.10;;;3.80;;
47483;SDS011;54076;50.322;18.650;2023-06-14T19:51:56;9.20;;;4.20;;
47483;SDS011;54076;50.322;18.650;2023-06-14T19:56:57;7.00;;;4.30;;
47483;SDS011;54076;50.322;18.650;2023-06-14T20:01:58;7.60;;;4.00;;
47483;SDS011;54076;50.322;18.650;2023-06-14T20:06:59;9.00;;;4.70;;
47483;SDS011;54076;50.322;18.650;2023-06-14T20:12:01;8.30;;;4.30;;
47483;SDS011;54076;50.322;18.650;2023-06-14T20:17:02;8.80;;;4.50;;
47483;SDS011;54076;50.322;18.650;2023-06-14T20:22:04;7.50;;;3.80;;
47483;SDS011;54076;50.322;18.650;2023-06-14T20:27:05;8.70;;;4.50;;
47483;SDS011;54076;50.322;18.650;2023-06-14T20:32:07;7.40;;;3.90;;
47483;SDS011;54076;50.322;18.650;2023-06-14T20:37:08;7.70;;;4.20;;
47483;SDS011;54076;50.322;18.650;2023-06-14T20:42:09;9.90;;;4.50;;
47483;SDS011;54076;50.322;18.650;2023-06-14T20:47:13;7.70;;;4.50;;
47483;SDS011;54076;50.322;18.650;2023-06-14T20:52:14;7.30;;;4.10;;
47483;SDS011;54076;50.322;18.650;2023-06-14T20:57:15;8.00;;;4.30;;
47483;SDS011;54076;50.322;18.650;2023-06-14T21:02:18;8.20;;;4.80;;
47483;SDS011;54076;50.322;18.650;2023-06-14T21:07:19;9.70;;;4.70;;
47483;SDS011;54076;50.322;18.650;2023-06-14T21:12:20;8.30;;;5.10;;
47483;SDS011;54076;50.322;18.650;2023-06-14T21:17:21;12.00;;;5.30;;
47483;SDS011;54076;50.322;18.650;2023-06-14T21:22:22;8.20;;;4.60;;
47483;SDS011;54076;50.322;18.650;2023-06-14T21:27:23;10.90;;;4.80;;
47483;SDS011;54076;50.322;18.650;2023-06-14T21:32:24;9.50;;;4.90;;
47483;SDS011;54076;50.322;18.650;2023-06-14T21:37:25;8.90;;;5.20;;
47483;SDS011;54076;50.322;18.650;2023-06-14T21:42:26;12.10;;;5.00;;
47483;SDS011;54076;50.322;18.650;2023-06-14T21:47:27;10.90;;;5.60;;
47483;SDS011;54076;50.322;18.650;2023-06-14T21:52:28;11.00;;;6.10;;
47483;SDS011;54076;50.322;18.650;2023-06-14T21:57:29;10.40;;;5.40;;
47483;SDS011;54076;50.322;18.650;2023-06-14T22:02:30;11.90;;;5.10;;
47483;SDS011;54076;50.322;18.650;2023-06-14T22:07:31;9.60;;;5.50;;
47483;SDS011;54076;50.322;18.650;2023-06-14T22:12:33;10.80;;;5.50;;
47483;SDS011;54076;50.322;18.650;2023-06-14T22:17:34;11.80;;;5.50;;
47483;SDS011;54076;50.322;18.650;2023-06-14T22:22:36;9.70;;;5.90;;
47483;SDS011;54076;50.322;18.650;2023-06-14T22:27:40;10.00;;;6.00;;
47483;SDS011;54076;50.322;18.650;2023-06-14T22:32:47;10.90;;;5.30;;
47483;SDS011;54076;50.322;18.650;2023-06-14T22:37:49;8.10;;;4.70;;
47483;SDS011;54076;50.322;18.650;2023-06-14T22:42:50;12.30;;;5.30;;
47483;SDS011;54076;50.322;18.650;2023-06-14T22:47:53;10.50;;;5.80;;
47483;SDS011;54076;50.322;18.650;2023-06-14T22:52:55;9.50;;;5.60;;
47483;SDS011;54076;50.322;18.650;2023-06-14T22:57:55;10.10;;;6.20;;
47483;SDS011;54076;50.322;18.650;2023-06-14T23:02:57;9.70;;;5.60;;
47483;SDS011;54076;50.322;18.650;2023-06-14T23:07:58;10.30;;;5.80;;
47483;SDS011;54076;50.322;18.650;2023-06-14T23:12:59;10.70;;;5.60;;
47483;SDS011;54076;50.322;18.650;2023-06-14T23:18:03;9.50;;;5.50;;
47483;SDS011;54076;50.322;18.650;2023-06-14T23:23:04;9.70;;;5.30;;
47483;SDS011;54076;50.322;18.650;2023-06-14T23:28:05;11.80;;;5.80;;
47483;SDS011;54076;50.322;18.650;2023-06-14T23:33:08;9.10;;;5.50;;
47483;SDS011;54076;50.322;18.650;2023-06-14T23:38:10;10.80;;;5.50;;
47483;SDS011;54076;50.322;18.650;2023-06-14T23:43:12;9.20;;;5.50;;
47483;SDS011;54076;50.322;18.650;2023-06-14T23:48:14;10.70;;;5.80;;
47483;SDS011;54076;50.322;18.650;2023-06-14T23:53:16;9.50;;;5.30;;
47483;SDS011;54076;50.322;18.650;2023-06-14T23:58:20;8.60;;;5.50;;
